Flugplatz Burg Feuerstein
 
wir freuen uns auf Euch ! 

 

DSC04520

 


wir sind täglich von 9 bis 18 Uhr unter 09194 - 79 75 75 

oder 

rund um die Uhr per Diese E-Mail-Adresse ist vor Spambots geschützt! Zur Anzeige muss JavaScript eingeschaltet sein! zu erreichen !

 

Flugbetrieb an jedem fliegbaren Tag von 9 Uhr bis 19 Uhr - nach Absprache auch flexibel darüber hinaus ! 

 

Folge uns auf

 


 
 
jetzt anmelden

und mit dem Infobrief vom Feuerstein auf dem Laufenden bleiben ... 

 



Wir bieten professionelle und trotzdem sehr günstige Ausbildung in 4 (!) Sparten an:

Motorflug Motorsegler Segelflug Ultraleicht

 

KEINE Landegebühren:
Unsere Flugschüler zahlen am Feuerstein KEINE Landegebühren!!!
(Und sparen so bei der Ausbildung eine Menge Geld!)
Das gilt sogar auch für Scheininhaber, die mal mit Fluglehrer üben!
(gilt auch beim vorgeschriebenen "Übungsflug mit Lehrer" oder bei Einweisungs- und Checkflügen!)

 

Fränkische Fliegerschule Feuerstein e.V. · Flugplatz 1 · 91320 Ebermannstadt

Feuerstein News Ticker

Das war für uns alle etwas Besonderes und wir sind froh, dass wir Josef zu dieser Freude verhelfen konnten! Von Geburt an taub und blind erhielt der 52 jährige von...


mehr lesen ...
0

Webcam Blick N

webcam 2

Webcam Blick NO

webcam 1

METAR EDDN

[Quelle: ADDS]
METAR
EDDN 240120Z 00000KT CAVOK 14/14 Q1026 =
TAF
EDDN 232300Z 2400/2424 10006KT CAVOK =
SR / SS: 04:20 / 18:14 UTC (EDQE 2016-08-24)

Wetter EDQE


Das Wetter heute
Das Wetter morgen